.
WxDataArchive / Data Records for 2014-03-23
2014-03-22 March 2014 2014-03-24

Data Records for Sunday, 23 March 2014

Time	Temp	Chill	HIndex	Humid	Dewpt	 Wind 	HiWind	WindDir	Rain 	Barom
-----	----	-----	------	-----	-----	------	------	-------	-----	-----
00:00	31.8	31.8	31.8	70	23.2	1	5	338	0.00	30.233 
00:05	31.6	31.6	31.6	70	23.0	0	3	338	0.00	30.233 
00:10	31.5	31.5	31.5	71	23.2	0	3	338	0.00	30.233 
00:15	31.3	31.3	31.3	71	23.0	1	3	338	0.00	30.236 
00:20	31.2	31.2	31.2	71	22.9	1	3	315	0.00	30.236 
00:25	31.2	31.2	31.2	71	22.9	1	5	270	0.00	30.236 
00:30	31.0	31.0	31.0	71	22.7	0	2	270	0.00	30.240 
00:35	30.9	30.9	30.9	71	22.6	1	3	270	0.00	30.240 
00:40	30.9	30.9	30.9	70	22.3	0	2	292	0.00	30.240 
00:45	30.7	30.7	30.7	70	22.1	0	2	292	0.00	30.245 
00:50	30.7	30.7	30.7	70	22.1	1	3	292	0.00	30.245 
00:55	30.6	30.6	30.6	70	22.0	1	3	292	0.00	30.245 
01:00	30.6	30.6	30.6	69	21.7	1	6	338	0.00	30.251 
01:05	30.4	30.4	30.4	68	21.1	1	4	315	0.00	30.251 
01:10	30.3	30.3	30.3	67	20.7	1	3	338	0.00	30.251 
01:15	30.1	30.1	30.1	67	20.5	1	3	292	0.00	30.244 
01:20	30.0	30.0	30.0	67	20.4	1	4	292	0.00	30.244 
01:25	30.0	30.0	30.0	67	20.4	0	2	338	0.00	30.244 
01:30	29.8	29.8	29.8	68	20.5	0	1	338	0.00	30.245 
01:35	29.7	29.7	29.7	68	20.5	1	3	315	0.00	30.245 
01:40	29.5	29.5	29.5	68	20.3	1	3	338	0.00	30.245 
01:45	29.4	29.4	29.4	68	20.2	0	3	292	0.00	30.247 
01:50	29.4	29.4	29.4	68	20.2	1	3	292	0.00	30.247 
01:55	29.3	29.3	29.3	68	20.1	0	2	292	0.00	30.247 
02:00	29.1	29.1	29.1	68	19.9	1	4	315	0.00	30.250 
02:05	29.0	29.0	29.0	67	19.4	0	3	338	0.00	30.250 
02:10	29.0	29.0	29.0	67	19.4	0	3	338	0.00	30.250 
02:15	28.8	28.8	28.8	67	19.2	0	2	338	0.00	30.256 
02:20	28.8	28.8	28.8	66	18.9	1	4	315	0.00	30.256 
02:25	28.8	28.8	28.8	66	18.9	1	3	338	0.00	30.256 
02:30	28.7	28.7	28.7	66	18.8	1	3	338	0.00	30.259 
02:35	28.7	28.7	28.7	66	18.8	1	3	338	0.00	30.259 
02:40	28.7	28.7	28.7	65	18.4	1	4	338	0.00	30.259 
02:45	28.7	28.7	28.7	65	18.4	1	5	338	0.00	30.264 
02:50	28.5	28.5	28.5	65	18.3	1	3	338	0.00	30.264 
02:55	28.4	28.4	28.4	66	18.5	0	2	338	0.00	30.264 
03:00	28.2	28.2	28.2	66	18.3	0	2	338	0.00	30.263 
03:05	28.2	28.2	28.2	66	18.3	1	3	338	0.00	30.263 
03:10	28.1	28.1	28.1	65	17.9	1	4	0	0.00	30.263 
03:15	28.1	28.1	28.1	61	16.4	2	7	315	0.00	30.257 
03:20	27.9	27.9	27.9	59	15.5	1	3	338	0.00	30.257 
03:25	27.8	27.8	27.8	57	14.6	1	4	338	0.00	30.257 
03:30	27.8	27.8	27.8	56	14.2	1	5	338	0.00	30.257 
03:35	27.6	27.6	27.6	56	14.0	0	2	338	0.00	30.257 
03:40	27.5	27.5	27.5	57	14.3	0	3	338	0.00	30.257 
03:45	27.5	27.5	27.5	56	13.9	1	4	338	0.00	30.257 
03:50	27.3	27.3	27.3	57	14.1	0	2	315	0.00	30.257 
03:55	27.2	27.2	27.2	57	14.0	0	1	338	0.00	30.257 
04:00	27.0	27.0	27.0	58	14.2	0	3	338	0.00	30.262 
04:05	27.0	27.0	27.0	58	14.2	0	3	338	0.00	30.262 
04:10	26.9	26.9	26.9	58	14.1	0	2	338	0.00	30.262 
04:15	26.7	26.7	26.7	59	14.3	0	3	338	0.00	30.268 
04:20	26.6	26.6	26.6	59	14.2	0	1	338	0.00	30.268 
04:25	26.6	26.6	26.6	60	14.6	0	1	338	0.00	30.268 
04:30	26.4	26.4	26.4	60	14.4	0	4	338	0.00	30.274 
04:35	26.6	26.6	26.6	60	14.6	1	6	0	0.00	30.274 
04:40	26.6	26.6	26.6	61	15.0	0	2	0	0.00	30.274 
04:45	26.6	26.6	26.6	61	15.0	0	1	0	0.00	30.275 
04:50	26.4	26.4	26.4	61	14.8	0	2	0	0.00	30.275 
04:55	26.4	26.4	26.4	61	14.8	0	3	270	0.00	30.275 
05:00	26.3	26.3	26.3	61	14.7	0	1	270	0.00	30.289 
05:05	26.1	26.1	26.1	60	14.1	0	1	270	0.00	30.289 
05:10	26.0	26.0	26.0	59	13.7	0	2	225	0.00	30.289 
05:15	25.8	25.8	25.8	58	13.1	0	3	270	0.00	30.289 
05:20	25.8	25.8	25.8	59	13.5	0	2	292	0.00	30.289 
05:25	25.6	25.6	25.6	58	12.9	0	4	292	0.00	30.289 
05:30	25.6	25.6	25.6	57	12.5	0	2	338	0.00	30.290 
05:35	25.4	25.4	25.4	57	12.3	0	3	338	0.00	30.290 
05:40	25.4	25.4	25.4	56	11.9	0	2	315	0.00	30.290 
05:45	25.4	25.4	25.4	56	11.9	0	4	315	0.00	30.295 
05:50	25.4	25.4	25.4	57	12.3	1	5	338	0.00	30.295 
05:55	25.3	25.3	25.3	57	12.2	0	4	0	0.00	30.295 
06:00	25.3	25.3	25.3	57	12.2	1	3	0	0.00	30.301 
06:05	25.1	25.1	25.1	56	11.6	1	4	0	0.00	30.301 
06:10	25.1	25.1	25.1	56	11.6	0	2	338	0.00	30.301 
06:15	25.1	25.1	25.1	56	11.6	0	2	338	0.00	30.309 
06:20	25.1	25.1	25.1	56	11.6	0	2	45	0.00	30.309 
06:25	25.1	25.1	25.1	55	11.2	0	3	338	0.00	30.309 
06:30	25.1	25.1	25.1	54	10.8	1	5	45	0.00	30.312 
06:35	25.1	25.1	25.1	54	10.8	1	5	22	0.00	30.312 
06:40	25.0	25.0	25.0	53	10.3	1	3	338	0.00	30.312 
06:45	25.0	25.0	25.0	54	10.7	1	4	338	0.00	30.323 
06:50	25.0	25.0	25.0	55	11.1	0	2	0	0.00	30.323 
06:55	24.8	24.8	24.8	55	11.0	0	2	0	0.00	30.323 
07:00	24.8	24.8	24.8	55	11.0	0	2	0	0.00	30.329 
07:05	24.7	24.7	24.7	55	10.9	0	3	0	0.00	30.329 
07:10	24.7	24.7	24.7	56	11.3	0	2	0	0.00	30.329 
07:15	24.5	24.5	24.5	58	11.9	0	2	0	0.00	30.333 
07:20	24.4	24.4	24.4	58	11.8	0	3	22	0.00	30.333 
07:25	24.4	24.4	24.4	58	11.8	0	3	22	0.00	30.333 
07:30	24.2	24.2	24.2	58	11.6	0	3	135	0.00	30.340 
07:35	24.1	24.1	24.1	58	11.5	0	3	135	0.00	30.340 
07:40	23.9	23.9	23.9	58	11.3	0	2	135	0.00	30.340 
07:45	23.8	23.8	23.8	57	10.8	1	3	135	0.00	30.341 
07:50	23.6	23.6	23.6	56	10.2	0	5	112	0.00	30.341 
07:55	23.6	23.6	23.6	53	9.0	1	3	112	0.00	30.341 
08:00	23.5	23.5	23.5	52	8.5	0	3	45	0.00	30.343 
08:05	23.6	23.6	23.6	53	9.0	0	2	45	0.00	30.343 
08:10	23.6	23.6	23.6	53	9.0	1	4	112	0.00	30.343 
08:15	23.6	23.6	23.6	53	9.0	1	5	0	0.00	30.348 
08:20	23.6	23.6	23.6	52	8.6	0	3	22	0.00	30.348 
08:25	23.6	23.6	23.6	53	9.0	0	4	0	0.00	30.348 
08:30	23.6	23.6	23.6	52	8.6	1	4	0	0.00	30.352 
08:35	23.8	23.8	23.8	51	8.3	1	6	112	0.00	30.352 
08:40	23.8	23.8	23.8	52	8.8	1	4	45	0.00	30.352 
08:45	23.8	23.8	23.8	52	8.8	0	2	45	0.00	30.359 
08:50	23.9	23.9	23.9	54	9.7	0	3	90	0.00	30.359 
08:55	23.9	23.9	23.9	53	9.3	1	4	90	0.00	30.359 
09:00	23.8	23.8	23.8	54	9.6	0	3	90	0.00	30.358 
09:05	23.6	23.6	23.6	54	9.4	0	4	338	0.00	30.358 
09:10	23.6	23.6	23.6	54	9.4	0	3	90	0.00	30.358 
09:15	23.8	23.8	23.8	55	10.0	1	4	90	0.00	30.366 
09:20	24.1	24.1	24.1	53	9.5	1	4	338	0.00	30.366 
09:25	24.1	24.1	24.1	53	9.5	1	5	338	0.00	30.366 
09:30	24.4	24.4	24.4	52	9.3	1	3	68	0.00	30.362 
09:35	24.5	24.5	24.5	52	9.4	1	6	68	0.00	30.362 
09:40	24.5	24.5	24.5	52	9.4	1	5	22	0.00	30.362 
09:45	24.7	24.7	24.7	53	10.0	1	5	22	0.00	30.367 
09:50	24.7	24.7	24.7	52	9.6	2	6	338	0.00	30.367 
09:55	24.7	24.7	24.7	52	9.6	1	6	338	0.00	30.367 
10:00	25.1	25.1	25.1	52	10.0	1	4	68	0.00	30.369 
10:05	25.6	25.6	25.6	50	9.6	1	4	68	0.00	30.369 
10:10	25.7	25.7	25.7	50	9.7	1	3	22	0.00	30.369 
10:15	25.6	25.6	25.6	50	9.6	1	4	22	0.00	30.373 
10:20	25.6	25.6	25.6	50	9.6	2	5	112	0.00	30.373 
10:25	25.4	25.4	25.4	49	8.9	2	6	338	0.00	30.373 
10:30	25.4	25.4	25.4	50	9.4	2	5	338	0.00	30.377 
10:35	25.7	25.7	25.7	50	9.7	1	3	315	0.00	30.377 
10:40	26.0	26.0	26.0	51	10.4	2	6	315	0.00	30.377 
10:45	26.1	26.1	26.1	51	10.5	2	5	112	0.00	30.379 
10:50	25.7	25.7	25.7	51	10.1	2	9	338	0.00	30.379 
10:55	25.6	25.6	25.6	52	10.4	1	6	338	0.00	30.379 
11:00	25.7	25.7	25.7	52	10.5	1	5	112	0.00	30.385 
11:05	26.1	26.1	26.1	50	10.0	1	5	315	0.00	30.385 
11:10	26.1	26.1	26.1	49	9.6	1	5	315	0.00	30.385 
11:15	26.0	26.0	26.0	50	9.9	1	5	315	0.00	30.387 
11:20	26.4	26.4	26.4	49	9.9	2	6	22	0.00	30.387 
11:25	26.6	26.6	26.6	49	10.0	2	5	0	0.00	30.387 
11:30	26.1	26.1	26.1	47	8.7	2	5	315	0.00	30.386 
11:35	26.6	26.6	26.6	48	9.6	2	5	112	0.00	30.386 
11:40	27.2	27.2	27.2	49	10.6	1	3	68	0.00	30.386 
11:45	27.0	27.0	27.0	47	9.5	2	6	338	0.00	30.392 
11:50	27.0	27.0	27.0	48	10.0	1	4	112	0.00	30.392 
11:55	27.6	27.6	27.6	50	11.4	2	6	338	0.00	30.392 
12:00	27.5	27.5	27.5	47	9.9	2	6	338	0.00	30.388 
12:05	26.6	26.6	26.6	46	8.6	2	6	338	0.00	30.388 
12:10	26.7	26.7	26.7	47	9.2	2	7	338	0.00	30.388 
12:15	27.0	27.0	27.0	47	9.5	2	5	315	0.00	30.390 
12:20	27.2	27.2	27.2	46	9.2	2	8	338	0.00	30.390 
12:25	27.2	27.2	27.2	47	9.7	2	10	22	0.00	30.390 
12:30	26.9	26.9	26.9	47	9.4	3	7	338	0.00	30.384 
12:35	26.6	26.6	26.6	48	9.6	2	5	0	0.00	30.384 
12:40	27.2	27.2	27.2	47	9.7	2	4	270	0.00	30.384 
12:45	27.0	27.0	27.0	47	9.5	2	6	338	0.00	30.377 
12:50	27.0	27.0	27.0	48	10.0	2	6	338	0.00	30.377 
12:55	27.5	27.5	27.5	50	11.3	2	6	292	0.00	30.377 
13:00	28.1	28.1	28.1	48	11.0	2	5	0	0.00	30.378 
13:05	27.6	27.6	27.6	47	10.0	2	6	315	0.00	30.378 
13:10	27.8	27.8	27.8	48	10.7	2	6	338	0.00	30.378 
13:15	28.1	28.1	28.1	47	10.5	3	7	0	0.00	30.378 
13:20	28.5	28.5	28.5	48	11.3	2	7	292	0.00	30.378 
13:25	28.8	28.8	28.8	48	11.6	2	7	292	0.00	30.378 
13:30	29.1	29.1	29.1	48	11.9	1	6	315	0.00	30.374 
13:35	28.7	28.7	28.7	45	10.1	2	6	315	0.00	30.374 
13:40	28.2	28.2	28.2	45	9.6	2	9	315	0.00	30.374 
13:45	28.5	28.5	28.5	46	10.4	3	6	270	0.00	30.372 
13:50	29.0	29.0	29.0	46	10.8	2	9	315	0.00	30.372 
13:55	29.3	29.3	29.3	45	10.6	2	6	338	0.00	30.372 
14:00	29.0	29.0	29.0	46	10.8	2	6	338	0.00	30.362 
14:05	29.1	29.1	29.1	48	11.9	2	8	22	0.00	30.362 
14:10	28.8	28.8	28.8	46	10.7	2	6	338	0.00	30.362 
14:15	28.5	28.5	28.5	45	9.9	1	4	338	0.00	30.363 
14:20	28.7	28.7	28.7	46	10.6	2	9	338	0.00	30.363 
14:25	29.4	29.4	29.4	45	10.7	1	6	338	0.00	30.363 
14:30	29.7	29.7	29.7	45	11.0	3	10	292	0.00	30.352 
14:35	29.5	29.5	29.5	45	10.8	3	7	292	0.00	30.352 
14:40	29.5	29.5	29.5	46	11.3	2	6	338	0.00	30.352 
14:45	29.8	29.8	29.8	43	10.1	2	8	270	0.00	30.348 
14:50	29.8	29.8	29.8	45	11.1	3	9	338	0.00	30.348 
14:55	30.1	30.1	30.1	45	11.4	3	7	338	0.00	30.348 
15:00	29.5	29.5	29.5	44	10.3	3	7	338	0.00	30.347 
15:05	29.4	29.4	29.4	45	10.7	3	8	292	0.00	30.347 
15:10	29.0	29.0	29.0	43	9.3	3	7	338	0.00	30.347 
15:15	29.0	29.0	29.0	45	10.4	2	5	292	0.00	30.347 
15:20	29.3	29.3	29.3	45	10.6	1	5	270	0.00	30.347 
15:25	29.0	29.0	29.0	46	10.8	3	6	270	0.00	30.347 
15:30	29.0	29.0	29.0	44	9.8	2	6	270	0.00	30.343 
15:35	28.7	28.7	28.7	45	10.1	1	9	248	0.00	30.343 
15:40	28.7	28.7	28.7	45	10.1	2	7	292	0.00	30.343 
15:45	28.5	28.5	28.5	45	9.9	2	5	315	0.00	30.338 
15:50	28.5	28.5	28.5	44	9.4	1	4	315	0.00	30.338 
15:55	28.8	28.8	28.8	44	9.7	2	7	338	0.00	30.338 
16:00	30.1	30.1	30.1	44	10.9	2	4	270	0.00	30.331 
16:05	31.0	31.0	31.0	43	11.2	2	10	270	0.00	30.331 
16:10	31.6	31.6	31.6	42	11.2	3	6	270	0.00	30.331 
16:15	31.5	31.5	31.5	40	10.0	2	5	338	0.00	30.330 
16:20	30.3	30.3	30.3	40	8.9	3	6	338	0.00	30.330 
16:25	29.7	29.7	29.7	41	8.9	2	4	315	0.00	30.330 
16:30	29.5	29.5	29.5	41	8.7	2	5	338	0.00	30.332 
16:35	29.8	29.8	29.8	43	10.1	2	6	270	0.00	30.332 
16:40	30.9	30.9	30.9	40	9.5	2	6	292	0.00	30.332 
16:45	31.5	31.5	31.5	40	10.0	2	5	270	0.00	30.329 
16:50	31.3	31.3	31.3	40	9.8	2	6	292	0.00	30.329 
16:55	30.1	30.1	30.1	41	9.3	2	6	292	0.00	30.329 
17:00	29.5	29.5	29.5	43	9.8	3	7	338	0.00	30.332 
17:05	29.5	29.5	29.5	41	8.7	2	9	315	0.00	30.332 
17:10	29.4	29.4	29.4	40	8.1	3	6	292	0.00	30.332 
17:15	29.0	29.0	29.0	41	8.3	2	5	338	0.00	30.334 
17:20	29.7	29.7	29.7	42	9.5	2	5	292	0.00	30.334 
17:25	30.0	30.0	30.0	41	9.2	2	7	270	0.00	30.334 
17:30	29.8	29.8	29.8	41	9.0	1	6	338	0.00	30.336 
17:35	29.4	29.4	29.4	41	8.6	0	4	338	0.00	30.336 
17:40	29.4	29.4	29.4	41	8.6	2	5	270	0.00	30.336 
17:45	29.3	29.3	29.3	39	7.4	2	5	292	0.00	30.340 
17:50	29.4	29.4	29.4	41	8.6	1	3	292	0.00	30.340 
17:55	29.8	29.8	29.8	42	9.5	2	5	315	0.00	30.340 
18:00	30.6	30.6	30.6	42	10.3	2	6	248	0.00	30.341 
18:05	30.3	30.3	30.3	40	8.9	2	4	338	0.00	30.341 
18:10	29.7	29.7	29.7	41	8.9	2	6	315	0.00	30.341 
18:15	29.4	29.4	29.4	41	8.6	1	5	338	0.00	30.338 
18:20	29.0	29.0	29.0	43	9.3	2	6	338	0.00	30.338 
18:25	28.8	28.8	28.8	43	9.2	2	6	338	0.00	30.338 
18:30	28.7	28.7	28.7	44	9.6	1	4	338	0.00	30.344 
18:35	28.7	28.7	28.7	44	9.6	1	4	270	0.00	30.344 
18:40	28.7	28.7	28.7	44	9.6	1	3	338	0.00	30.344 
18:45	28.5	28.5	28.5	44	9.4	0	2	338	0.00	30.348 
18:50	28.5	28.5	28.5	46	10.4	1	5	338	0.00	30.348 
18:55	28.5	28.5	28.5	46	10.4	1	5	270	0.00	30.348 
19:00	28.5	28.5	28.5	45	9.9	1	5	315	0.00	30.347 
19:05	28.5	28.5	28.5	45	9.9	1	3	338	0.00	30.347 
19:10	28.4	28.4	28.4	43	8.8	2	5	292	0.00	30.347 
19:15	28.2	28.2	28.2	45	9.6	1	5	338	0.00	30.351 
19:20	28.1	28.1	28.1	45	9.5	1	4	292	0.00	30.351 
19:25	27.9	27.9	27.9	46	9.8	1	4	292	0.00	30.351 
19:30	27.8	27.8	27.8	46	9.7	2	5	292	0.00	30.353 
19:35	27.6	27.6	27.6	46	9.6	1	5	0	0.00	30.353 
19:40	27.3	27.3	27.3	46	9.3	1	4	315	0.00	30.353 
19:45	27.2	27.2	27.2	47	9.7	1	4	315	0.00	30.354 
19:50	27.0	27.0	27.0	48	10.0	0	2	315	0.00	30.354 
19:55	26.9	26.9	26.9	49	10.3	0	3	315	0.00	30.354 
20:00	26.6	26.6	26.6	49	10.0	1	4	0	0.00	30.359 
20:05	26.3	26.3	26.3	49	9.8	2	5	0	0.00	30.359 
20:10	26.1	26.1	26.1	50	10.0	1	4	270	0.00	30.359 
20:15	26.0	26.0	26.0	50	9.9	1	4	315	0.00	30.366 
20:20	25.7	25.7	25.7	51	10.1	1	5	315	0.00	30.366 
20:25	25.6	25.6	25.6	51	10.0	1	3	270	0.00	30.366 
20:30	25.6	25.6	25.6	51	10.0	1	4	270	0.00	30.367 
20:35	25.4	25.4	25.4	51	9.8	1	6	338	0.00	30.367 
20:40	25.3	25.3	25.3	52	10.2	0	1	292	0.00	30.367 
20:45	25.1	25.1	25.1	52	10.0	1	3	270	0.00	30.369 
20:50	25.0	25.0	25.0	52	9.9	1	4	270	0.00	30.369 
20:55	24.8	24.8	24.8	52	9.7	0	2	315	0.00	30.369 
21:00	24.7	24.7	24.7	52	9.6	1	5	270	0.00	30.371 
21:05	24.5	24.5	24.5	52	9.4	0	3	270	0.00	30.371 
21:10	24.5	24.5	24.5	52	9.4	1	5	315	0.00	30.371 
21:15	24.4	24.4	24.4	53	9.8	0	5	270	0.00	30.371 
21:20	24.2	24.2	24.2	53	9.6	0	3	270	0.00	30.371 
21:25	24.1	24.1	24.1	54	9.9	0	1	270	0.00	30.371 
21:30	23.9	23.9	23.9	54	9.7	0	2	270	0.00	30.372 
21:35	23.9	23.9	23.9	55	10.1	0	2	270	0.00	30.372 
21:40	23.8	23.8	23.8	55	10.0	0	3	270	0.00	30.372 
21:45	23.6	23.6	23.6	56	10.2	0	1	270	0.00	30.374 
21:50	23.5	23.5	23.5	56	10.1	0	2	270	0.00	30.374 
21:55	23.5	23.5	23.5	57	10.5	0	1	270	0.00	30.374 
22:00	23.3	23.3	23.3	57	10.3	0	2	270	0.00	30.378 
22:05	23.2	23.2	23.2	57	10.3	0	2	270	0.00	30.378 
22:10	23.2	23.2	23.2	57	10.3	0	2	270	0.00	30.378 
22:15	23.0	23.0	23.0	57	10.1	0	2	270	0.00	30.384 
22:20	22.9	22.9	22.9	57	10.0	0	1	270	0.00	30.384 
22:25	22.7	22.7	22.7	57	9.8	0	0	---	0.00	30.384 
22:30	22.7	22.7	22.7	57	9.8	0	1	270	0.00	30.384 
22:35	22.5	22.5	22.5	57	9.6	0	1	270	0.00	30.384 
22:40	22.4	22.4	22.4	57	9.5	0	1	270	0.00	30.384 
22:45	22.4	22.4	22.4	58	9.9	0	0	---	0.00	30.386 
22:50	22.2	22.2	22.2	58	9.7	0	1	270	0.00	30.386 
22:55	22.1	22.1	22.1	58	9.6	0	0	---	0.00	30.386 
23:00	22.1	22.1	22.1	59	10.0	0	1	270	0.00	30.387 
23:05	21.9	21.9	21.9	58	9.4	0	1	270	0.00	30.387 
23:10	21.9	21.9	21.9	58	9.4	0	1	270	0.00	30.387 
23:15	21.8	21.8	21.8	58	9.3	0	0	---	0.00	30.385 
23:20	21.8	21.8	21.8	58	9.3	0	0	---	0.00	30.385 
23:25	21.6	21.6	21.6	58	9.1	0	1	270	0.00	30.385 
23:30	21.4	21.4	21.4	58	8.9	0	0	---	0.00	30.385 
23:35	21.4	21.4	21.4	58	8.9	0	1	270	0.00	30.385 
23:40	21.3	21.3	21.3	59	9.2	0	1	270	0.00	30.385 
23:45	21.3	21.3	21.3	58	8.9	0	2	270	0.00	30.386 
23:50	21.1	21.1	21.1	59	9.0	0	1	270	0.00	30.386 
23:55	21.1	21.1	21.1	59	9.0	0	1	270	0.00	30.386 

CoCoRaHS
IN-AL-39
A2 Web Hosting
Creative Commons License
GoDaddy
search engine by freefind advanced

loaded 2018-11-15 05:33:59 • last modified 2010-11-18 10:43:29
Privacy PolicyDisclaimer
• wx.awcolley.com is powered by PmWiki v.2002016 •
• all content (unless otherwise noted) © 2018 A W Colley